Terminal Aerodrome Forecast
Issued by NWS

Current Version | Previous Version | Graphics & Text | Print | Product List | Glossary On
Versions: 1 2 3 4 5 6 7 8 9 10 11 12 13 14 15 16 17 18 19 20 21 22 23
000
FTUS41 KRLX 280500
TAFCKB
TAF
KCKB 280524Z 2806/2906 00000KT P6SM FEW250
     FM280800 00000KT 6SM BR FEW250
     FM281000 00000KT 3SM BR SCT001
     FM281200 00000KT 5SM BR SCT001
     FM281300 VRB03KT P6SM SCT200=

USA.gov is the U.S. government's official web portal to all federal, state and local government web resources and services.